Time;durP1;ratioP1;P1;durP2;ratioP2;P2;SDS_P1;SDS_P2;PMS_P1;PMS_P2;Temp;Humidity;BMP_temperature;BMP_pressure;BME280_temperature;BME280_humidity;BME280_pressure;Samples;Min_cycle;Max_cycle;Signal;HPM_P1;HPM_P2
2022/01/31 00:00:49;;;;;;;7.70;3.80;;;0.60;99.90;;;0.91;100.00;96239.69;5065219;27;114344;-71
2022/01/31 00:03:18;;;;;;;7.40;3.25;;;0.60;99.90;;;0.98;100.00;96229.28;5048850;27;129291;-72
2022/01/31 00:05:46;;;;;;;6.07;3.78;;;0.60;99.90;;;0.99;100.00;96241.50;5065980;27;129123;-72
2022/01/31 00:08:21;;;;;;;10.00;4.72;;;0.60;99.90;;;0.99;100.00;96233.50;5064114;27;118649;-72
2022/01/31 00:10:50;;;;;;;7.95;4.20;;;0.60;99.90;;;1.00;100.00;96227.06;5066014;27;115463;-72
2022/01/31 00:13:24;;;;;;;9.57;4.57;;;0.60;99.90;;;1.05;100.00;96244.75;5065706;27;130550;-72
2022/01/31 00:15:56;;;;;;;8.85;4.70;;;0.60;99.90;;;0.95;100.00;96239.81;5082792;27;130094;-72
2022/01/31 00:18:24;;;;;;;7.95;4.38;;;0.60;99.90;;;0.93;100.00;96237.47;5063802;27;118936;-72
2022/01/31 00:20:53;;;;;;;10.32;5.03;;;0.60;99.90;;;1.00;100.00;96243.06;5064085;27;116074;-72
2022/01/31 00:23:22;;;;;;;10.70;4.65;;;0.60;99.90;;;1.08;100.00;96234.19;5063970;27;130157;-71
2022/01/31 00:25:51;;;;;;;7.38;4.00;;;0.60;99.90;;;1.14;100.00;96236.66;5065466;27;130118;-71
2022/01/31 00:28:21;;;;;;;11.52;4.82;;;0.60;99.90;;;1.14;100.00;96247.31;5066666;27;119025;-71
2022/01/31 00:30:50;;;;;;;8.43;4.75;;;0.60;99.90;;;0.75;100.00;96234.19;5083077;27;115015;-71
2022/01/31 00:33:18;;;;;;;8.05;5.00;;;0.50;99.90;;;0.48;100.00;96236.28;5062020;27;130535;-72
2022/01/31 00:35:47;;;;;;;9.30;4.75;;;0.50;99.90;;;0.59;100.00;96233.97;5063458;27;130323;-72
2022/01/31 00:38:16;;;;;;;8.48;4.68;;;0.50;99.90;;;0.52;100.00;96241.75;5065652;27;118555;-72
2022/01/31 00:40:46;;;;;;;8.98;4.95;;;0.50;99.90;;;0.57;100.00;96252.22;5083058;27;114867;-72
2022/01/31 00:43:16;;;;;;;8.00;4.43;;;0.50;99.90;;;0.60;100.00;96262.25;5063410;27;130682;-72
2022/01/31 00:45:58;;;;;;;10.40;5.65;;;0.50;99.90;;;0.51;100.00;96258.84;5065067;27;129443;-72
2022/01/31 00:48:28;;;;;;;9.77;5.25;;;0.50;99.90;;;0.63;100.00;96260.81;5062310;27;119101;-72
2022/01/31 00:50:57;;;;;;;9.48;5.30;;;0.50;99.90;;;0.84;100.00;96263.47;5063327;27;115361;-72
2022/01/31 00:53:25;;;;;;;7.78;4.70;;;0.60;99.90;;;0.71;100.00;96274.06;5062938;27;129978;-71
2022/01/31 00:55:54;;;;;;;12.75;5.65;;;0.60;99.90;;;0.64;100.00;96263.16;5063367;27;129627;-71
2022/01/31 00:58:22;;;;;;;9.93;5.50;;;0.50;99.90;;;0.71;100.00;96273.31;5062233;27;119148;-70
2022/01/31 01:00:52;;;;;;;11.30;5.90;;;0.60;99.90;;;0.42;100.00;96261.59;5082486;27;114817;-71
2022/01/31 01:03:21;;;;;;;10.60;6.32;;;0.50;99.90;;;0.48;100.00;96270.16;5062884;27;130288;-71
2022/01/31 01:05:50;;;;;;;10.50;5.93;;;0.50;99.90;;;0.34;100.00;96276.53;5064718;27;130073;-71
2022/01/31 01:08:18;;;;;;;10.80;6.63;;;0.50;99.90;;;0.52;100.00;96287.09;5064644;27;118809;-71
2022/01/31 01:10:47;;;;;;;10.45;6.35;;;0.50;99.90;;;0.32;100.00;96278.75;5063983;27;116083;-70
2022/01/31 01:13:15;;;;;;;10.38;6.05;;;0.50;99.90;;;0.18;100.00;96283.53;5064678;27;130030;-71
2022/01/31 01:15:44;;;;;;;11.35;6.45;;;0.50;99.90;;;0.15;100.00;96294.84;5061506;27;130925;-72
2022/01/31 01:18:14;;;;;;;12.57;7.03;;;0.50;99.90;;;0.28;100.00;96293.84;5064999;27;118706;-72
2022/01/31 01:20:43;;;;;;;9.95;6.38;;;0.50;99.90;;;0.39;100.00;96293.44;5082053;27;115264;-73
2022/01/31 01:23:12;;;;;;;12.75;6.60;;;0.50;99.90;;;0.24;100.00;96287.56;5064986;27;129411;-72
2022/01/31 01:25:40;;;;;;;10.23;5.95;;;0.50;99.90;;;0.24;100.00;96292.91;5062966;27;130632;-72
2022/01/31 01:28:09;;;;;;;11.52;6.55;;;0.50;99.90;;;0.27;100.00;96291.50;5064917;27;118591;-72
2022/01/31 01:30:37;;;;;;;11.20;6.35;;;0.50;99.90;;;0.43;100.00;96295.16;5064949;27;115225;-72
2022/01/31 01:33:11;;;;;;;10.32;6.05;;;0.60;99.90;;;0.62;100.00;96291.28;5064156;27;130762;-73
2022/01/31 01:35:41;;;;;;;7.85;4.47;;;0.60;99.90;;;0.60;100.00;96304.16;5047018;27;128242;-72
2022/01/31 01:38:12;;;;;;;5.07;2.78;;;0.50;99.90;;;0.50;100.00;96292.00;5064328;27;119784;-72
2022/01/31 01:40:41;;;;;;;4.47;2.20;;;0.30;99.90;;;0.35;100.00;96315.44;5061831;27;116287;-72
2022/01/31 01:43:16;;;;;;;4.00;2.28;;;0.20;99.90;;;0.10;100.00;96311.03;5082222;27;129307;-72
2022/01/31 01:45:45;;;;;;;4.18;2.13;;;0.00;99.90;;;-0.09;100.00;96317.53;5064345;27;130703;-70
2022/01/31 01:48:17;;;;;;;3.70;2.10;;;-0.10;99.90;;;-0.20;100.00;96324.31;5064834;27;118526;-71
2022/01/31 01:50:50;;;;;;;4.68;2.53;;;-0.20;99.90;;;-0.32;100.00;96332.19;5047454;27;114042;-71
2022/01/31 01:53:20;;;;;;;4.72;2.50;;;-0.20;99.90;;;-0.37;100.00;96339.25;5064044;27;129559;-71
2022/01/31 01:55:51;;;;;;;5.70;3.17;;;-0.30;99.90;;;-0.46;100.00;96330.50;5064015;27;129032;-71
2022/01/31 01:58:20;;;;;;;5.30;2.95;;;-0.30;99.90;;;-0.49;100.00;96335.69;5061473;27;118788;-73
2022/01/31 02:00:58;;;;;;;5.43;2.50;;;-0.40;99.90;;;-0.57;100.00;96342.59;5047143;27;114795;-73
2022/01/31 02:03:42;;;;;;;5.72;3.53;;;-0.40;99.90;;;-0.62;100.00;96345.44;5063745;27;128910;-73
2022/01/31 02:06:11;;;;;;;7.03;3.13;;;-0.50;99.90;;;-0.63;100.00;96341.97;5064455;27;130141;-73
2022/01/31 02:08:44;;;;;;;6.88;3.92;;;-0.50;99.90;;;-0.64;100.00;96350.25;5064739;27;118836;-73
2022/01/31 02:11:20;;;;;;;;;;;-0.50;99.90;;;-0.67;100.00;96342.91;5065387;27;114531;-74
2022/01/31 02:13:51;;;;;;;6.28;3.50;;;-0.50;99.90;;;-0.75;100.00;96355.94;5069550;27;130713;-72
2022/01/31 02:16:38;;;;;;;6.57;3.45;;;-0.50;99.90;;;-0.64;100.00;96366.25;5066408;27;129120;-73
2022/01/31 02:19:16;;;;;;;6.18;3.65;;;-0.50;99.90;;;-0.66;100.00;96352.47;5083093;27;118086;-72
2022/01/31 02:21:54;;;;;;;5.18;3.22;;;-0.50;99.90;;;-0.68;100.00;96365.31;5064245;27;115741;-73
2022/01/31 02:24:51;;;;;;;6.07;3.47;;;-0.60;99.90;;;-0.71;100.00;96360.63;5044714;27;130134;-73
2022/01/31 02:27:44;;;;;;;5.85;3.35;;;-0.60;99.90;;;-0.75;100.00;96361.25;5056733;27;130892;-73
2022/01/31 02:30:16;;;;;;;6.47;3.40;;;-0.60;99.90;;;-0.74;100.00;96362.03;5064731;27;118435;-72
2022/01/31 02:32:48;;;;;;;4.95;3.13;;;-0.70;99.90;;;-0.71;100.00;96361.41;5047067;27;114303;-71
2022/01/31 02:35:18;;;;;;;6.80;3.47;;;-0.70;99.90;;;-0.81;100.00;96378.50;5063993;27;130161;-72
2022/01/31 02:37:48;;;;;;;6.95;3.70;;;-0.70;99.90;;;-0.77;100.00;96370.66;5063536;27;130318;-72
2022/01/31 02:40:24;;;;;;;6.32;3.60;;;-0.70;99.90;;;-0.78;100.00;96387.72;5081127;27;118866;-73
2022/01/31 02:42:53;;;;;;;6.45;3.78;;;-0.70;99.90;;;-0.79;100.00;96386.94;5062787;27;115446;-71
2022/01/31 02:45:25;;;;;;;6.95;3.97;;;-0.80;99.90;;;-0.84;100.00;96389.75;5080718;27;130291;-72
2022/01/31 02:47:56;;;;;;;5.20;2.75;;;-0.80;99.90;;;-0.86;100.00;96399.16;5061514;27;129682;-72
2022/01/31 02:50:26;;;;;;;5.40;2.92;;;-0.80;99.90;;;-0.89;100.00;96397.88;5063907;27;118888;-71
2022/01/31 02:53:10;;;;;;;5.13;3.08;;;-0.80;99.90;;;-0.90;100.00;96401.66;5063867;27;115388;-71
2022/01/31 02:55:41;;;;;;;6.25;3.00;;;-0.90;99.90;;;-0.91;100.00;96408.06;5061685;27;129969;-71
2022/01/31 02:58:10;;;;;;;4.93;2.78;;;-0.90;99.90;;;-0.95;100.00;96410.59;5046273;27;128729;-71
2022/01/31 03:00:40;;;;;;;5.47;2.92;;;-0.90;99.90;;;-0.94;100.00;96411.34;5060426;27;119005;-69
2022/01/31 03:03:21;;;;;;;5.55;2.38;;;-0.90;99.90;;;-1.00;100.00;96416.03;5063653;27;114705;-72
2022/01/31 03:05:49;;;;;;;5.28;2.78;;;-0.90;99.90;;;-0.97;100.00;96411.97;5080261;27;129797;-72
2022/01/31 03:08:22;;;;;;;4.95;2.58;;;-0.90;99.90;;;-0.95;100.00;96410.59;5062640;27;129871;-71
2022/01/31 03:10:51;;;;;;;6.07;3.22;;;-1.00;99.90;;;-0.98;100.00;96405.09;5063493;27;118577;-72
2022/01/31 03:13:29;;;;;;;5.80;3.10;;;-1.00;99.90;;;-1.03;100.00;96410.56;5046328;27;113026;-71
2022/01/31 03:15:57;;;;;;;5.80;3.05;;;-0.90;99.90;;;-0.99;100.00;96414.94;5062568;27;130305;-71
2022/01/31 03:18:45;;;;;;;4.18;2.40;;;-1.00;99.90;;;-1.00;100.00;96418.69;5064083;27;129272;-71
2022/01/31 03:21:14;;;;;;;5.03;2.63;;;-1.00;99.90;;;-1.01;100.00;96424.34;5063437;27;118251;-71
2022/01/31 03:23:46;;;;;;;4.72;2.70;;;-1.00;99.90;;;-1.00;100.00;96428.56;5063413;27;115304;-71
2022/01/31 03:26:15;;;;;;;4.57;2.78;;;-1.00;99.90;;;-0.99;100.00;96424.81;5080150;27;130092;-70
2022/01/31 03:28:44;;;;;;;3.97;2.30;;;-1.00;99.90;;;-1.09;100.00;96424.03;5062460;27;130889;-71
2022/01/31 03:31:13;;;;;;;5.95;2.42;;;-1.00;99.90;;;-1.09;100.00;96429.34;5046343;27;117702;-71
2022/01/31 03:33:42;;;;;;;4.88;2.83;;;-1.00;99.90;;;-1.04;100.00;96441.72;5061645;27;114942;-71
2022/01/31 03:36:10;;;;;;;5.45;2.90;;;-1.00;99.90;;;-1.00;100.00;96433.91;5062792;27;129876;-70
2022/01/31 03:38:40;;;;;;;5.28;2.40;;;-1.00;99.90;;;-0.98;100.00;96423.72;5063528;27;129905;-71
2022/01/31 03:41:12;;;;;;;4.43;2.58;;;-1.00;99.90;;;-1.08;100.00;96435.44;5060989;27;118855;-72
2022/01/31 03:43:41;;;;;;;4.70;2.58;;;-1.00;99.90;;;-1.06;100.00;96438.59;5063189;27;115874;-72
2022/01/31 03:46:11;;;;;;;4.45;2.42;;;-1.00;99.90;;;-1.11;100.00;96450.19;5080347;27;129609;-72
2022/01/31 03:48:41;;;;;;;5.10;2.72;;;-1.00;99.90;;;-1.02;100.00;96446.75;5046009;27;129613;-72
2022/01/31 03:51:25;;;;;;;5.63;2.85;;;-1.00;99.90;;;-1.10;100.00;96456.28;5074297;27;118586;-71
2022/01/31 03:53:54;;;;;;;8.25;3.92;;;-1.00;99.90;;;-1.13;100.00;96452.34;5047586;27;115205;-70
2022/01/31 03:56:25;;;;;;;7.30;3.33;;;-1.10;99.90;;;-1.18;100.00;96459.72;5061092;27;130238;-72
2022/01/31 03:59:17;;;;;;;5.15;2.50;;;-1.10;99.90;;;-1.11;100.00;96462.69;5062305;27;129421;-71
2022/01/31 04:01:46;;;;;;;5.35;3.30;;;-1.10;99.90;;;-1.15;100.00;96457.22;5060244;27;119437;-70
2022/01/31 04:04:15;;;;;;;6.68;3.40;;;-1.10;99.90;;;-1.22;100.00;96470.16;5060467;27;115115;-70
2022/01/31 04:06:44;;;;;;;5.40;3.10;;;-1.10;99.90;;;-1.18;100.00;96468.47;5059674;27;130548;-70
2022/01/31 04:09:12;;;;;;;5.88;3.17;;;-1.10;99.90;;;-1.16;100.00;96484.91;5062012;27;130374;-71
2022/01/31 04:11:43;;;;;;;5.82;3.53;;;-1.10;99.90;;;-1.22;100.00;96474.72;5063449;27;118943;-70
2022/01/31 04:14:12;;;;;;;5.28;3.05;;;-1.10;99.90;;;-1.21;100.00;96485.06;5060233;27;115810;-70
2022/01/31 04:16:41;;;;;;;6.07;3.17;;;-1.10;99.90;;;-1.19;100.00;96480.19;5062390;27;128847;-71
2022/01/31 04:19:10;;;;;;;5.75;3.30;;;-1.10;99.90;;;-1.17;100.00;96486.00;5059384;27;129840;-71
2022/01/31 04:21:38;;;;;;;6.00;3.50;;;-1.10;99.90;;;-1.18;100.00;96486.31;5062342;27;117926;-71
2022/01/31 04:24:07;;;;;;;6.22;3.78;;;-1.20;99.90;;;-1.19;100.00;96496.16;5061077;27;115187;-73
2022/01/31 04:26:44;;;;;;;4.95;3.00;;;-1.10;99.90;;;-1.19;100.00;96488.19;5062251;27;130598;-73
2022/01/31 04:29:18;;;;;;;5.82;3.25;;;-1.20;99.90;;;-1.15;100.00;96497.13;5058056;27;129677;-70
2022/01/31 04:31:49;;;;;;;5.25;3.00;;;-1.20;99.90;;;-1.20;100.00;96489.28;5003410;28;118736;-73
2022/01/31 04:34:18;;;;;;;4.88;2.72;;;-1.20;99.90;;;-1.30;100.00;96485.00;5006542;28;116246;-71
2022/01/31 04:36:46;;;;;;;7.70;2.80;;;-1.20;99.90;;;-1.27;100.00;96502.25;5021162;28;130088;-71
2022/01/31 04:39:17;;;;;;;5.53;3.35;;;-1.20;99.90;;;-1.34;100.00;96515.19;5019489;28;130142;-72
2022/01/31 04:41:47;;;;;;;5.63;3.00;;;-1.20;99.90;;;-1.43;100.00;96512.50;5002168;28;118909;-72
2022/01/31 04:44:18;;;;;;;4.72;2.67;;;-1.20;99.90;;;-1.41;100.00;96509.56;5003118;28;115578;-72
2022/01/31 04:46:49;;;;;;;5.63;3.10;;;-1.20;99.90;;;-1.36;100.00;96517.38;5003030;28;130543;-71
2022/01/31 04:49:18;;;;;;;5.00;2.78;;;-1.20;99.90;;;-1.40;100.00;96511.91;5003378;28;129993;-71
2022/01/31 04:51:46;;;;;;;4.22;2.30;;;-1.20;99.90;;;-1.48;100.00;96516.09;5003011;28;118833;-72
2022/01/31 04:54:15;;;;;;;4.97;2.60;;;-1.30;99.90;;;-1.49;100.00;96506.53;5004506;28;115034;-70
2022/01/31 04:56:44;;;;;;;5.10;2.78;;;-1.30;99.90;;;-1.46;100.00;96513.91;5003886;28;130301;-70
2022/01/31 04:59:13;;;;;;;6.88;2.58;;;-1.30;99.90;;;-1.50;100.00;96528.91;5002301;28;130118;-70
2022/01/31 05:01:43;;;;;;;3.95;2.47;;;-1.30;99.90;;;-1.46;100.00;96529.88;5004272;28;119027;-70
2022/01/31 05:04:12;;;;;;;4.55;2.50;;;-1.30;99.90;;;-1.49;100.00;96530.47;5004852;28;113878;-71
2022/01/31 05:06:42;;;;;;;5.72;2.97;;;-1.30;99.90;;;-1.52;100.00;96525.00;5004296;28;128883;-71
2022/01/31 05:09:11;;;;;;;4.68;2.97;;;-1.30;99.90;;;-1.49;100.00;96535.78;5004378;28;130179;-71
2022/01/31 05:11:40;;;;;;;5.30;3.00;;;-1.40;99.90;;;-1.47;100.00;96543.47;5002623;28;119049;-70
2022/01/31 05:14:08;;;;;;;4.65;2.47;;;-1.30;99.90;;;-1.57;100.00;96544.53;5003169;28;115386;-70
2022/01/31 05:16:36;;;;;;;3.30;1.90;;;-1.30;99.90;;;-1.51;100.00;96559.25;5002695;28;130344;-72
2022/01/31 05:19:06;;;;;;;3.85;2.22;;;-1.30;99.90;;;-1.46;100.00;96564.44;5002137;28;130552;-70
2022/01/31 05:21:35;;;;;;;3.40;2.08;;;-1.40;99.90;;;-1.49;100.00;96567.72;5002129;28;118987;-70
2022/01/31 05:24:06;;;;;;;4.53;2.28;;;-1.40;99.90;;;-1.47;100.00;96557.53;5004650;28;115680;-71
2022/01/31 05:26:35;;;;;;;4.03;1.98;;;-1.40;99.90;;;-1.54;100.00;96573.16;5004969;28;129951;-71
2022/01/31 05:29:04;;;;;;;3.83;2.03;;;-1.40;99.90;;;-1.60;100.00;96571.72;5001916;28;129771;-70
2022/01/31 05:31:32;;;;;;;3.20;1.98;;;-1.40;99.90;;;-1.61;100.00;96586.09;5003679;28;119345;-70
2022/01/31 05:34:00;;;;;;;2.53;1.60;;;-1.50;99.90;;;-1.74;100.00;96586.97;5002743;28;115148;-70
2022/01/31 05:36:31;;;;;;;4.70;1.80;;;-1.60;99.90;;;-1.66;100.00;96594.22;5004839;28;129792;-69
2022/01/31 05:38:59;;;;;;;2.28;1.50;;;-1.60;99.90;;;-1.60;100.00;96592.22;5002246;28;129590;-70
2022/01/31 05:41:28;;;;;;;2.17;1.50;;;-1.50;99.90;;;-1.69;100.00;96584.19;5002058;28;119047;-70
2022/01/31 05:43:56;;;;;;;4.85;2.25;;;-1.60;99.90;;;-1.78;100.00;96591.31;5001860;28;115849;-71
2022/01/31 05:46:25;;;;;;;1.67;1.42;;;-1.60;99.90;;;-1.81;100.00;96590.84;5003379;28;130255;-71
2022/01/31 05:48:53;;;;;;;2.40;1.40;;;-1.60;99.90;;;-1.81;100.00;96598.81;5001674;28;129724;-71
2022/01/31 05:51:24;;;;;;;2.45;1.55;;;-1.70;99.90;;;-1.95;100.00;96600.72;5004532;28;119505;-71
2022/01/31 05:53:54;;;;;;;2.90;1.30;;;-1.70;99.90;;;-1.91;100.00;96593.72;5002438;28;115239;-70
2022/01/31 05:56:22;;;;;;;2.05;1.33;;;-1.70;99.90;;;-1.92;100.00;96600.09;5002738;28;129954;-70
2022/01/31 05:58:51;;;;;;;3.15;1.38;;;-1.70;99.90;;;-1.86;100.00;96596.25;5001496;28;129732;-70
2022/01/31 06:01:20;;;;;;;3.63;1.48;;;-1.70;99.90;;;-1.78;100.00;96588.66;5003665;28;118997;-70
2022/01/31 06:03:48;;;;;;;2.90;1.67;;;-1.70;99.90;;;-1.85;100.00;96603.16;5004694;28;115252;-69
2022/01/31 06:06:16;;;;;;;2.35;1.60;;;-1.70;99.90;;;-1.79;100.00;96613.66;5004081;28;131590;-69
2022/01/31 06:08:45;;;;;;;3.47;1.70;;;-1.70;99.90;;;-1.88;100.00;96614.38;5001245;28;129666;-69
2022/01/31 06:11:15;;;;;;;2.38;1.65;;;-1.70;99.90;;;-1.90;100.00;96607.78;5001056;28;118932;-69
2022/01/31 06:13:45;;;;;;;3.08;1.70;;;-1.70;99.90;;;-1.93;100.00;96601.22;5003775;28;116158;-69
2022/01/31 06:16:14;;;;;;;3.15;1.60;;;-1.70;99.90;;;-1.97;100.00;96610.88;5002204;28;130069;-70
2022/01/31 06:18:43;;;;;;;2.35;1.50;;;-1.80;99.90;;;-1.86;100.00;96614.09;5000696;28;129982;-70
2022/01/31 06:21:12;;;;;;;3.17;1.73;;;-1.70;99.90;;;-1.94;100.00;96626.22;5001305;28;119084;-71
2022/01/31 06:23:41;;;;;;;3.20;1.75;;;-1.80;99.90;;;-1.94;100.00;96614.81;5001321;28;115242;-70
2022/01/31 06:26:10;;;;;;;6.13;1.60;;;-1.80;99.90;;;-1.86;100.00;96638.00;5001031;28;129861;-72
2022/01/31 06:28:40;;;;;;;3.03;1.77;;;-1.80;99.90;;;-1.89;100.00;96639.38;4999940;28;129607;-69
2022/01/31 06:31:30;;;;;;;4.57;1.88;;;-1.80;99.90;;;-1.92;100.00;96639.22;5003994;28;118690;-69
2022/01/31 06:33:59;;;;;;;3.75;2.22;;;-1.80;99.90;;;-1.92;100.00;96645.31;5002463;28;115332;-69
2022/01/31 06:36:28;;;;;;;3.17;1.95;;;-1.80;99.90;;;-1.87;100.00;96639.09;4985784;28;128675;-69
2022/01/31 06:38:57;;;;;;;4.10;2.22;;;-1.80;99.90;;;-1.81;100.00;96653.84;5000638;28;129972;-68
2022/01/31 06:41:28;;;;;;;3.03;1.80;;;-1.80;99.90;;;-1.75;100.00;96649.19;5002658;28;117559;-69
2022/01/31 06:43:58;;;;;;;4.40;2.22;;;-1.80;99.90;;;-1.68;100.00;96654.91;5002089;28;115405;-69
2022/01/31 06:46:27;;;;;;;4.97;2.28;;;-1.80;99.90;;;-1.70;100.00;96667.69;5000900;28;129736;-68
2022/01/31 06:48:55;;;;;;;3.60;1.92;;;-1.70;99.90;;;-1.66;100.00;96664.13;5000002;28;131741;-68
2022/01/31 06:51:24;;;;;;;5.10;1.98;;;-1.70;99.90;;;-1.59;100.00;96673.56;5002487;28;119458;-69
2022/01/31 06:53:55;;;;;;;3.33;1.98;;;-1.80;99.90;;;-1.59;100.00;96666.38;5002427;28;115155;-68
2022/01/31 06:56:29;;;;;;;3.05;1.73;;;-1.70;99.90;;;-1.64;100.00;96666.47;5001990;28;130388;-69
2022/01/31 06:58:59;;;;;;;3.83;2.03;;;-1.80;99.90;;;-1.68;100.00;96665.53;5003075;28;129589;-69
2022/01/31 07:01:28;;;;;;;3.15;1.90;;;-1.90;99.90;;;-1.73;100.00;96684.25;5002286;28;119901;-71
2022/01/31 07:03:57;;;;;;;3.35;1.83;;;-1.80;99.90;;;-1.65;100.00;96664.94;5003135;28;116011;-68
2022/01/31 07:06:26;;;;;;;3.13;1.80;;;-1.80;99.90;;;-1.73;100.00;96674.41;5002830;28;130677;-68
2022/01/31 07:08:54;;;;;;;3.42;1.98;;;-1.90;99.90;;;-1.59;100.00;96663.72;5000081;28;129967;-67
2022/01/31 07:11:27;;;;;;;3.85;1.80;;;-1.80;99.90;;;-1.51;100.00;96676.31;5001699;28;119202;-67
2022/01/31 07:14:03;;;;;;;3.50;2.03;;;-1.80;99.90;;;-1.37;100.00;96660.28;5002716;28;114195;-67
2022/01/31 07:16:35;;;;;;;3.27;2.10;;;-1.70;99.90;;;-1.47;100.00;96661.28;5002482;28;129938;-67
2022/01/31 07:19:07;;;;;;;3.50;2.33;;;-1.80;99.90;;;-1.33;100.00;96676.41;5002664;28;130403;-67
2022/01/31 07:21:39;;;;;;;3.58;2.00;;;-1.70;99.90;;;-1.47;100.00;96671.94;5018317;28;119075;-67
2022/01/31 07:24:21;;;;;;;3.28;1.73;;;-1.80;99.90;;;-1.50;100.00;96677.84;4995201;28;113871;-67
2022/01/31 07:26:52;;;;;;;3.97;2.05;;;-1.80;99.90;;;-1.42;100.00;96678.22;5001621;28;129564;-67
2022/01/31 07:29:22;;;;;;;4.90;2.10;;;-1.80;99.90;;;-1.38;100.00;96679.22;5002625;28;129672;-68
2022/01/31 07:31:52;;;;;;;4.93;2.15;;;-1.80;99.90;;;-1.34;99.97;96686.28;5000918;28;118781;-67
2022/01/31 07:34:22;;;;;;;4.75;2.20;;;-1.80;99.90;;;-1.38;100.00;96684.53;4999880;28;114895;-67
2022/01/31 07:36:51;;;;;;;4.15;1.80;;;-1.80;99.90;;;-1.33;99.91;96698.47;5001153;28;129633;-66
2022/01/31 07:39:19;;;;;;;6.22;2.40;;;-1.80;99.90;;;-1.36;99.13;96687.66;5001999;28;130035;-67
2022/01/31 07:41:49;;;;;;;5.30;2.70;;;-1.80;99.90;;;-1.38;98.41;96690.63;4998624;28;118817;-65
2022/01/31 07:44:18;;;;;;;4.57;2.42;;;-1.80;99.90;;;-1.37;98.71;96696.72;5000029;28;115545;-68
2022/01/31 07:46:48;;;;;;;5.90;3.17;;;-1.70;99.90;;;-1.18;97.89;96704.56;5000395;28;130747;-69
2022/01/31 07:49:21;;;;;;;3.50;2.08;;;-1.70;99.90;;;-1.11;97.59;96705.69;4999535;28;129596;-66
2022/01/31 07:51:50;;;;;;;3.53;2.00;;;-1.60;99.90;;;-1.09;98.07;96702.72;5001660;28;119589;-66
2022/01/31 07:54:19;;;;;;;6.78;2.42;;;-1.70;99.90;;;-1.14;98.05;96698.31;4999583;28;116613;-67
2022/01/31 07:56:47;;;;;;;5.15;2.10;;;-1.60;99.90;;;-1.02;98.21;96707.63;4999338;28;130321;-67
2022/01/31 07:59:16;;;;;;;4.32;2.45;;;-1.70;99.90;;;-1.04;98.33;96709.78;4997855;28;129508;-67
2022/01/31 08:01:45;;;;;;;4.90;3.05;;;-1.60;99.90;;;-1.07;97.62;96710.41;5002986;28;118854;-67
2022/01/31 08:04:14;;;;;;;4.55;2.38;;;-1.60;99.90;;;-1.22;97.11;96709.66;5003069;28;115147;-66
2022/01/31 08:06:44;;;;;;;6.47;3.30;;;-1.70;99.90;;;-1.15;96.77;96704.72;5005449;28;129956;-67
2022/01/31 08:09:12;;;;;;;7.95;3.42;;;-1.60;99.90;;;-1.00;96.69;96710.75;5002733;28;130937;-67
2022/01/31 08:11:41;;;;;;;5.10;2.35;;;-1.60;99.90;;;-1.07;95.80;96710.41;5004316;28;119018;-67
2022/01/31 08:14:11;;;;;;;3.72;2.20;;;-1.70;98.70;;;-0.89;95.56;96701.41;4988657;28;114294;-67
2022/01/31 08:16:42;;;;;;;5.78;2.22;;;-1.60;99.90;;;-0.92;95.23;96713.47;5003987;28;130325;-67
2022/01/31 08:19:11;;;;;;;4.30;2.17;;;-1.60;99.30;;;-0.87;95.26;96709.91;5005832;28;130634;-67
2022/01/31 08:21:40;;;;;;;5.45;2.72;;;-1.60;99.30;;;-0.77;94.04;96714.94;5002930;28;119256;-66
2022/01/31 08:24:10;;;;;;;5.53;2.55;;;-1.50;95.90;;;-0.54;93.32;96717.59;5004306;28;115181;-67
2022/01/31 08:26:40;;;;;;;4.55;2.35;;;-1.50;96.50;;;-0.62;93.17;96710.34;5002666;28;129752;-66
2022/01/31 08:29:19;;;;;;;7.35;3.38;;;-1.50;95.80;;;-0.83;93.67;96721.50;5015100;28;129900;-67
2022/01/31 08:31:52;;;;;;;6.25;3.53;;;-1.70;94.40;;;-0.83;94.60;96726.06;5005626;28;119452;-67
2022/01/31 08:35:47;;;;;;;10.05;5.53;;;-1.50;95.90;;;-0.78;94.48;96729.38;4988429;28;113702;-67
2022/01/31 08:37:14;;;;;;;7.93;3.92;;;-1.50;93.90;;;-0.67;94.30;96726.44;5004093;28;130800;-68
2022/01/31 08:39:44;;;;;;;7.93;3.65;;;-1.50;97.80;;;-0.63;94.38;96730.06;5002541;28;129746;-67
2022/01/31 08:42:13;;;;;;;6.05;3.00;;;-1.50;98.60;;;-0.73;94.40;96747.88;5005354;28;118946;-67
2022/01/31 08:44:41;;;;;;;4.85;2.40;;;-1.60;97.90;;;-0.78;94.87;96740.03;5004658;28;114494;-67
2022/01/31 08:47:10;;;;;;;3.15;1.98;;;-1.60;99.90;;;-0.72;94.17;96748.66;5002064;28;129987;-67
2022/01/31 08:49:39;;;;;;;5.80;2.15;;;-1.60;98.70;;;-0.80;94.42;96755.50;5004036;28;130787;-66
2022/01/31 08:52:08;;;;;;;4.95;2.00;;;-1.70;98.70;;;-0.81;93.91;96761.13;5004926;28;120141;-66
2022/01/31 08:54:36;;;;;;;3.70;2.10;;;-1.60;99.20;;;-0.62;93.32;96755.63;5004498;28;113928;-66
2022/01/31 08:57:07;;;;;;;3.35;1.90;;;-1.60;99.90;;;-0.82;93.34;96755.03;5005328;28;129606;-67
2022/01/31 08:59:42;;;;;;;4.00;2.38;;;-1.70;94.90;;;-0.73;93.59;96749.78;5003474;28;129929;-67
2022/01/31 09:02:14;;;;;;;6.18;2.42;;;-1.70;98.30;;;-0.84;93.82;96754.56;5004847;28;118888;-67
2022/01/31 09:04:48;;;;;;;4.97;2.17;;;-1.70;98.50;;;-0.97;93.92;96750.84;5002455;28;114941;-69
2022/01/31 09:07:19;;;;;;;3.38;2.08;;;-1.70;98.20;;;-1.14;94.05;96743.56;5004717;28;130125;-66
2022/01/31 09:09:51;;;;;;;2.50;1.77;;;-1.80;93.90;;;-1.25;94.00;96755.50;5003560;28;129302;-66
2022/01/31 09:12:23;;;;;;;4.78;2.22;;;-1.80;90.00;;;-1.39;94.58;96752.13;5003257;28;119659;-66
2022/01/31 09:14:52;;;;;;;3.60;1.70;;;-1.80;86.00;;;-1.46;94.53;96737.34;5004000;28;115707;-65
2022/01/31 09:17:21;;;;;;;5.10;2.30;;;-1.90;84.70;;;-1.29;94.71;96741.25;5003554;28;129551;-67
2022/01/31 09:19:49;;;;;;;3.53;1.88;;;-1.90;90.30;;;-1.07;93.27;96747.69;5001637;28;131406;-66
2022/01/31 09:22:18;;;;;;;4.00;2.15;;;-1.70;87.60;;;-0.94;92.94;96746.81;5002545;28;119369;-66
2022/01/31 09:24:49;;;;;;;3.17;1.80;;;-1.70;82.20;;;-0.84;92.64;96749.25;5001550;28;114970;-66
2022/01/31 09:27:20;;;;;;;4.63;2.00;;;-1.70;85.20;;;-1.10;92.54;96744.50;5000509;28;130298;-66
2022/01/31 09:29:48;;;;;;;6.95;3.13;;;-1.70;75.50;;;-0.99;93.54;96736.28;5003529;28;129970;-66
2022/01/31 09:32:21;;;;;;;5.45;2.65;;;-1.80;90.60;;;-0.79;92.76;96754.44;5003430;28;118417;-66
2022/01/31 09:34:50;;;;;;;3.65;2.30;;;-1.70;95.50;;;-0.71;92.73;96744.16;5002636;28;115731;-66
2022/01/31 09:37:21;;;;;;;8.48;3.10;;;-1.60;99.80;;;-0.47;92.17;96733.91;5002148;28;129594;-66
2022/01/31 09:39:50;;;;;;;11.15;2.70;;;-1.60;99.50;;;-0.53;92.00;96751.13;5003518;28;129617;-65
2022/01/31 09:42:28;;;;;;;4.10;2.10;;;-1.60;96.60;;;-0.17;90.48;96742.19;5003837;28;117829;-65
2022/01/31 09:45:15;;;;;;;3.67;1.80;;;-1.50;99.00;;;-0.34;90.48;96736.78;5004813;28;115185;-65
2022/01/31 09:50:32;;;;;;;3.78;1.80;;;-1.50;99.10;;;0.05;88.71;96748.50;5001689;28;130303;-67
2022/01/31 09:53:00;;;;;;;3.92;1.98;;;-1.40;97.00;;;-0.24;88.14;96763.16;5004915;28;119014;-66
2022/01/31 09:55:30;;;;;;;4.07;2.13;;;-1.60;90.70;;;-0.08;88.76;96756.34;5001881;28;115966;-66
2022/01/31 09:58:00;;;;;;;4.10;2.03;;;-1.50;96.20;;;0.39;86.73;96753.16;5000581;28;129920;-66
2022/01/31 10:00:35;;;;;;;2.38;1.55;;;-1.30;96.70;;;0.23;86.63;96752.78;5002530;28;130594;-66
2022/01/31 10:03:10;;;;;;;5.75;2.13;;;-1.40;90.50;;;0.41;85.39;96763.50;5001349;28;118744;-66
2022/01/31 10:05:40;;;;;;;3.35;1.80;;;-1.40;77.80;;;0.41;84.26;96760.84;5004817;28;115259;-67
2022/01/31 10:08:14;;;;;;;4.35;2.10;;;-1.40;75.60;;;0.14;85.10;96757.31;5001917;28;130398;-67
2022/01/31 10:10:47;;;;;;;2.38;1.58;;;-1.50;70.10;;;0.05;85.18;96764.50;5002616;28;129692;-67
2022/01/31 10:16:27;;;;;;;3.05;1.40;;;-1.50;77.60;;;-0.02;86.00;96770.28;5001697;28;115602;-66
2022/01/31 10:19:06;;;;;;;2.67;1.50;;;-1.50;72.60;;;-0.26;85.44;96776.03;5000993;28;130399;-66
2022/01/31 10:22:00;;;;;;;3.90;1.83;;;-1.60;55.40;;;-0.10;85.74;96758.50;5019486;28;129733;-66
2022/01/31 10:24:32;;;;;;;2.53;1.50;;;-1.50;62.60;;;-0.08;85.51;96783.00;5000092;28;119006;-66
2022/01/31 10:27:12;;;;;;;3.00;1.60;;;-1.50;57.20;;;-0.11;85.48;96783.63;5002194;28;115851;-66
2022/01/31 10:29:43;;;;;;;4.07;2.40;;;-1.60;50.00;;;-0.14;85.38;96784.22;5002313;28;129875;-66
2022/01/31 10:32:16;;;;;;;6.03;2.92;;;-1.50;50.00;;;0.17;85.32;96788.69;5000617;28;130147;-67